createdAt,value
2022-11-24T00:01:07.489Z,93065.38
2022-11-24T00:03:34.827Z,93068.25
2022-11-24T00:06:11.035Z,93067.19
2022-11-24T00:08:39.570Z,93071.13
2022-11-24T00:11:11.882Z,93075.78
2022-11-24T00:13:41.736Z,93072.69
2022-11-24T00:16:17.015Z,93078.25
2022-11-24T00:18:45.804Z,93074.00
2022-11-24T00:21:13.475Z,93077.34
2022-11-24T00:23:40.259Z,93073.22
2022-11-24T00:26:13.027Z,93075.22
2022-11-24T00:28:40.488Z,93077.94
2022-11-24T00:31:19.324Z,93083.69
2022-11-24T00:33:48.034Z,93087.72
2022-11-24T00:36:16.289Z,93083.59
2022-11-24T00:38:43.361Z,93085.16
2022-11-24T00:41:10.335Z,93086.53
2022-11-24T00:43:37.030Z,93088.31
2022-11-24T00:46:03.939Z,93096.03
2022-11-24T00:48:31.222Z,93091.38
2022-11-24T00:51:03.126Z,93105.69
2022-11-24T00:53:30.498Z,93102.06
2022-11-24T00:55:57.284Z,93093.56
2022-11-24T00:58:24.987Z,93087.78
2022-11-24T01:00:52.590Z,93085.22
2022-11-24T01:03:20.634Z,93093.13
2022-11-24T01:05:47.518Z,93089.75
2022-11-24T01:08:14.317Z,93084.50
2022-11-24T01:10:40.961Z,93092.59
2022-11-24T01:13:07.690Z,93089.25
2022-11-24T01:15:36.309Z,93083.72
2022-11-24T01:18:04.159Z,93081.97
2022-11-24T01:20:31.131Z,93079.63
2022-11-24T01:22:57.869Z,93087.72
2022-11-24T01:25:24.543Z,93097.63
2022-11-24T01:27:51.424Z,93099.00
2022-11-24T01:30:18.119Z,93107.50
2022-11-24T01:32:44.721Z,93110.09
2022-11-24T01:35:11.386Z,93109.06
2022-11-24T01:37:37.935Z,93102.47
2022-11-24T01:40:05.680Z,93098.38
2022-11-24T01:42:50.452Z,93099.50
2022-11-24T01:45:43.169Z,93087.53
2022-11-24T01:48:22.046Z,93089.22
2022-11-24T01:51:06.779Z,93093.22
2022-11-24T01:53:33.567Z,93090.47
2022-11-24T01:56:00.324Z,93078.81
2022-11-24T01:58:30.650Z,93090.78
2022-11-24T02:00:57.280Z,93089.44
2022-11-24T02:03:28.193Z,93094.75
2022-11-24T02:06:04.894Z,93095.34
2022-11-24T02:08:43.863Z,93100.44
2022-11-24T02:11:10.449Z,93104.38
2022-11-24T02:13:39.251Z,93104.59
2022-11-24T02:16:10.708Z,93100.84
2022-11-24T02:18:39.551Z,93096.38
2022-11-24T02:21:07.319Z,93099.53
2022-11-24T02:23:45.093Z,93103.88
2022-11-24T02:26:11.599Z,93101.94
2022-11-24T02:28:38.805Z,93100.41
2022-11-24T02:31:06.277Z,93105.00
2022-11-24T02:33:34.310Z,93107.84
2022-11-24T02:36:00.998Z,93103.63
2022-11-24T02:38:35.370Z,93100.16
2022-11-24T02:41:11.766Z,93096.38
2022-11-24T02:43:54.675Z,93105.13
2022-11-24T02:46:21.446Z,93107.06
2022-11-24T02:48:48.180Z,93108.63
2022-11-24T02:51:15.058Z,93108.72
2022-11-24T02:53:41.692Z,93106.75
2022-11-24T02:56:08.424Z,93106.56
2022-11-24T02:58:35.306Z,93110.03
2022-11-24T03:01:01.898Z,93107.16
2022-11-24T03:03:28.590Z,93095.66
2022-11-24T03:05:55.279Z,93106.38
2022-11-24T03:08:21.915Z,93104.91
2022-11-24T03:10:49.185Z,93113.25
2022-11-24T03:13:15.973Z,93114.91
2022-11-24T03:15:42.750Z,93118.22
2022-11-24T03:18:09.444Z,93119.22
2022-11-24T03:20:36.320Z,93123.00
2022-11-24T03:23:02.983Z,93113.03
2022-11-24T03:25:29.606Z,93124.50
2022-11-24T03:27:58.135Z,93126.91
2022-11-24T03:30:24.861Z,93126.44
2022-11-24T03:32:53.775Z,93126.84
2022-11-24T03:35:21.078Z,93141.75
2022-11-24T03:37:47.995Z,93144.25
2022-11-24T03:40:14.921Z,93150.34
2022-11-24T03:42:41.568Z,93158.75
2022-11-24T03:47:55.315Z,93149.34
2022-11-24T03:50:21.897Z,93144.22
2022-11-24T03:52:48.532Z,93152.22
2022-11-24T03:55:15.266Z,93151.50
2022-11-24T03:57:41.918Z,93154.00
2022-11-24T04:00:09.481Z,93152.59
2022-11-24T04:02:36.142Z,93162.81
2022-11-24T04:05:02.836Z,93176.47
2022-11-24T04:07:29.428Z,93188.47
2022-11-24T04:09:56.089Z,93184.91
2022-11-24T04:12:41.609Z,93186.66
2022-11-24T04:15:08.827Z,93195.53
2022-11-24T04:17:35.382Z,93199.53
2022-11-24T04:20:02.358Z,93205.28
2022-11-24T04:22:28.967Z,93204.56
2022-11-24T04:24:55.631Z,93197.94
2022-11-24T04:27:22.974Z,93197.19
2022-11-24T04:29:50.931Z,93193.84
2022-11-24T04:32:17.723Z,93201.22
2022-11-24T04:34:44.348Z,93192.94
2022-11-24T04:37:11.186Z,93199.06
2022-11-24T04:39:37.852Z,93201.78
2022-11-24T04:42:04.504Z,93191.13
2022-11-24T04:44:31.222Z,93193.47
2022-11-24T04:46:57.924Z,93195.38
2022-11-24T04:49:24.661Z,93198.09
2022-11-24T04:51:51.256Z,93197.41
2022-11-24T04:54:17.917Z,93198.84
2022-11-24T04:56:44.544Z,93198.22
2022-11-24T04:59:14.889Z,93203.84
2022-11-24T05:01:46.092Z,93206.59
2022-11-24T05:04:15.276Z,93210.38
2022-11-24T05:06:41.997Z,93208.88
2022-11-24T05:09:08.860Z,93209.84
2022-11-24T05:11:35.506Z,93214.13
2022-11-24T05:14:02.167Z,93216.56
2022-11-24T05:16:28.851Z,93212.44
2022-11-24T05:18:55.493Z,93209.84
2022-11-24T05:21:22.139Z,93211.47
2022-11-24T05:23:48.946Z,93212.53
2022-11-24T05:26:15.565Z,93224.34
2022-11-24T05:28:42.264Z,93225.09
2022-11-24T05:31:08.991Z,93229.69
2022-11-24T05:33:36.230Z,93228.31
2022-11-24T05:36:04.950Z,93230.63
2022-11-24T05:38:32.043Z,93234.56
2022-11-24T05:41:03.532Z,93231.25
2022-11-24T05:43:30.210Z,93227.81
2022-11-24T05:46:00.825Z,93235.00
2022-11-24T05:48:28.055Z,93241.66
2022-11-24T05:50:55.879Z,93236.06
2022-11-24T05:53:23.442Z,93250.47
2022-11-24T05:55:50.060Z,93249.38
2022-11-24T05:58:16.928Z,93250.66
2022-11-24T06:00:43.876Z,93252.22
2022-11-24T06:03:12.089Z,93243.63
2022-11-24T06:05:39.306Z,93251.75
2022-11-24T06:08:05.978Z,93252.53
2022-11-24T06:10:32.636Z,93252.69
2022-11-24T06:12:59.186Z,93253.13
2022-11-24T06:15:25.801Z,93248.44
2022-11-24T06:17:56.700Z,93254.28
2022-11-24T06:20:29.823Z,93250.13
2022-11-24T06:23:00.013Z,93257.13
2022-11-24T06:25:27.112Z,93260.16
2022-11-24T06:27:53.811Z,93261.34
2022-11-24T06:30:20.599Z,93278.38
2022-11-24T06:32:49.714Z,93276.66
2022-11-24T06:35:17.264Z,93284.97
2022-11-24T06:37:44.175Z,93294.16
2022-11-24T06:40:11.092Z,93295.56
2022-11-24T06:42:38.034Z,93291.19
2022-11-24T06:45:08.996Z,93295.56
2022-11-24T06:47:36.472Z,93307.63
2022-11-24T06:50:03.352Z,93312.03
2022-11-24T06:52:29.985Z,93321.22
2022-11-24T06:54:57.268Z,93323.84
2022-11-24T06:57:23.934Z,93329.91
2022-11-24T06:59:50.641Z,93333.19
2022-11-24T07:02:17.295Z,93337.91
2022-11-24T07:04:43.883Z,93342.59
2022-11-24T07:07:10.589Z,93354.44
2022-11-24T07:09:37.311Z,93357.59
2022-11-24T07:12:04.892Z,93356.28
2022-11-24T07:14:32.242Z,93360.25
2022-11-24T07:16:59.044Z,93363.84
2022-11-24T07:19:25.713Z,93368.28
2022-11-24T07:21:52.302Z,93374.81
2022-11-24T07:24:18.971Z,93383.13
2022-11-24T07:26:45.660Z,93385.69
2022-11-24T07:29:12.257Z,93375.47
2022-11-24T07:31:39.220Z,93382.34
2022-11-24T07:34:06.247Z,93389.41
2022-11-24T07:36:32.839Z,93388.59
2022-11-24T07:38:59.742Z,93392.00
2022-11-24T07:41:26.389Z,93396.38
2022-11-24T07:43:53.125Z,93396.75
2022-11-24T07:46:20.269Z,93403.97
2022-11-24T07:48:47.393Z,93398.56
2022-11-24T07:51:14.247Z,93402.91
2022-11-24T07:53:40.886Z,93402.66
2022-11-24T07:56:09.130Z,93412.41
2022-11-24T07:58:37.489Z,93427.78
2022-11-24T08:01:12.567Z,93424.13
2022-11-24T08:03:39.424Z,93435.41
2022-11-24T08:08:52.907Z,93433.28
2022-11-24T08:11:19.559Z,93445.16
2022-11-24T08:13:46.458Z,93440.56
2022-11-24T08:16:16.003Z,93443.81
2022-11-24T08:18:43.855Z,93456.84
2022-11-24T08:21:14.279Z,93461.50
2022-11-24T08:23:41.832Z,93467.41
2022-11-24T08:26:13.737Z,93477.88
2022-11-24T08:28:40.345Z,93478.75
2022-11-24T08:31:10.638Z,93474.22
2022-11-24T08:33:37.892Z,93482.00
2022-11-24T08:36:06.568Z,93480.97
2022-11-24T08:38:33.172Z,93486.69
2022-11-24T08:41:05.027Z,93489.47
2022-11-24T08:43:31.798Z,93489.56
2022-11-24T08:46:07.382Z,93495.56
2022-11-24T08:48:37.741Z,93503.41
2022-11-24T08:51:12.785Z,93505.91
2022-11-24T08:53:39.981Z,93503.28
2022-11-24T08:56:07.495Z,93503.06
2022-11-24T08:58:34.978Z,93504.25
2022-11-24T09:01:13.969Z,93513.25
2022-11-24T09:03:46.550Z,93512.06
2022-11-24T09:06:25.109Z,93519.25
2022-11-24T09:08:54.325Z,93518.75
2022-11-24T09:11:21.695Z,93523.06
2022-11-24T09:13:48.496Z,93520.66
2022-11-24T09:16:20.936Z,93518.81
2022-11-24T09:18:48.142Z,93516.13
2022-11-24T09:21:20.044Z,93521.78
2022-11-24T09:23:51.469Z,93520.94
2022-11-24T09:26:19.555Z,93532.47
2022-11-24T09:28:47.099Z,93531.88
2022-11-24T09:31:15.746Z,93528.44
2022-11-24T09:33:43.159Z,93533.47
2022-11-24T09:36:09.970Z,93530.38
2022-11-24T09:38:36.732Z,93537.06
2022-11-24T09:41:20.320Z,93535.63
2022-11-24T09:44:11.427Z,93543.75
2022-11-24T09:46:59.935Z,93534.50
2022-11-24T09:49:51.533Z,93539.03
2022-11-24T09:52:35.717Z,93541.16
2022-11-24T09:55:05.447Z,93535.75
2022-11-24T09:57:37.627Z,93538.41
2022-11-24T10:00:12.940Z,93542.31
2022-11-24T10:02:39.703Z,93539.81
2022-11-24T10:05:07.147Z,93542.66
2022-11-24T10:07:42.394Z,93546.44
2022-11-24T10:10:25.050Z,93545.84
2022-11-24T10:13:01.141Z,93549.72
2022-11-24T10:15:46.093Z,93542.06
2022-11-24T10:18:34.485Z,93536.66
2022-11-24T10:21:13.040Z,93547.56
2022-11-24T10:24:02.588Z,93552.03
2022-11-24T10:26:36.739Z,93553.47
2022-11-24T10:29:24.779Z,93564.78
2022-11-24T10:31:55.067Z,93555.97
2022-11-24T10:34:38.087Z,93560.75
2022-11-24T10:37:10.605Z,93554.78
2022-11-24T10:39:41.232Z,93553.13
2022-11-24T10:42:36.994Z,93555.59
2022-11-24T10:45:09.517Z,93556.78
2022-11-24T10:47:36.224Z,93558.69
2022-11-24T10:50:15.154Z,93552.81
2022-11-24T10:52:45.298Z,93554.22
2022-11-24T10:55:11.974Z,93559.22
2022-11-24T10:57:40.533Z,93561.88
2022-11-24T11:00:19.368Z,93557.81
2022-11-24T11:02:48.685Z,93560.28
2022-11-24T11:05:44.197Z,93548.25
2022-11-24T11:08:14.157Z,93559.38
2022-11-24T11:10:44.877Z,93553.13
2022-11-24T11:13:29.552Z,93568.69
2022-11-24T11:15:58.511Z,93570.38
2022-11-24T11:18:33.542Z,93580.25
2022-11-24T11:21:02.543Z,93568.75
2022-11-24T11:23:32.458Z,93578.56
2022-11-24T11:26:35.964Z,93572.59
2022-11-24T11:35:13.626Z,93572.75
2022-11-24T11:37:40.487Z,93571.09
2022-11-24T11:40:17.138Z,93579.16
2022-11-24T11:43:03.050Z,93577.72
2022-11-24T11:45:37.979Z,93572.72
2022-11-24T11:48:04.659Z,93573.56
2022-11-24T11:51:21.692Z,93576.06
2022-11-24T11:54:27.213Z,93577.81
2022-11-24T11:57:03.522Z,93584.09
2022-11-24T11:59:53.412Z,93578.00
2022-11-24T12:02:28.914Z,93577.72
2022-11-24T12:05:02.572Z,93578.31
2022-11-24T12:07:56.643Z,93589.97
2022-11-24T12:10:44.711Z,93589.66
2022-11-24T12:13:49.871Z,93581.19
2022-11-24T12:16:35.185Z,93591.16
2022-11-24T12:19:24.881Z,93588.09
2022-11-24T12:22:03.669Z,93592.53
2022-11-24T12:24:39.139Z,93591.16
2022-11-24T12:27:15.684Z,93596.09
2022-11-24T12:29:53.647Z,93590.84
2022-11-24T12:32:32.166Z,93594.84
2022-11-24T12:35:03.471Z,93592.31
2022-11-24T12:37:54.720Z,93595.06
2022-11-24T12:40:43.640Z,93588.72
2022-11-24T12:43:22.180Z,93596.88
2022-11-24T12:46:09.957Z,93598.22
2022-11-24T12:49:04.539Z,93597.16
2022-11-24T12:51:39.786Z,93606.41
2022-11-24T12:54:12.966Z,93602.81
2022-11-24T12:57:32.945Z,93596.25
2022-11-24T13:00:07.609Z,93606.41
2022-11-24T13:03:05.562Z,93595.50
2022-11-24T13:05:43.918Z,93601.91
2022-11-24T13:08:11.067Z,93603.03
2022-11-24T13:10:56.325Z,93612.31
2022-11-24T13:13:30.310Z,93604.75
2022-11-24T13:18:45.431Z,93619.38
2022-11-24T13:21:36.577Z,93610.53
2022-11-24T13:24:06.345Z,93621.06
2022-11-24T13:26:41.546Z,93626.22
2022-11-24T13:29:30.043Z,93626.00
2022-11-24T13:32:02.886Z,93630.00
2022-11-24T13:34:38.720Z,93620.31
2022-11-24T13:37:40.682Z,93622.81
2022-11-24T13:40:13.474Z,93631.66
2022-11-24T13:42:57.787Z,93631.44
2022-11-24T13:45:39.953Z,93633.00
2022-11-24T13:48:18.828Z,93623.94
2022-11-24T13:50:51.974Z,93633.72
2022-11-24T13:53:47.657Z,93624.09
2022-11-24T13:56:14.360Z,93628.66
2022-11-24T13:58:43.017Z,93622.00
2022-11-24T14:01:30.154Z,93618.94
2022-11-24T14:04:34.196Z,93628.88
2022-11-24T14:07:08.342Z,93634.22
2022-11-24T14:09:36.087Z,93636.03
2022-11-24T14:12:20.790Z,93640.75
2022-11-24T14:14:48.969Z,93651.88
2022-11-24T14:17:20.118Z,93651.00
2022-11-24T14:19:48.897Z,93645.31
2022-11-24T14:22:17.816Z,93649.91
2022-11-24T14:24:50.983Z,93646.22
2022-11-24T14:27:20.479Z,93647.00
2022-11-24T14:29:55.501Z,93643.25
2022-11-24T14:32:23.022Z,93646.84
2022-11-24T14:34:50.976Z,93647.97
2022-11-24T14:37:19.506Z,93638.53
2022-11-24T14:39:46.784Z,93637.91
2022-11-24T14:42:27.605Z,93629.94
2022-11-24T14:44:58.708Z,93629.59
2022-11-24T14:47:36.254Z,93624.44
2022-11-24T14:50:11.199Z,93636.28
2022-11-24T14:52:45.373Z,93634.94
2022-11-24T14:55:25.531Z,93641.16
2022-11-24T14:57:52.285Z,93639.97
2022-11-24T15:00:24.870Z,93651.06
2022-11-24T15:03:17.579Z,93649.38
2022-11-24T15:05:54.611Z,93651.75
2022-11-24T15:08:22.343Z,93655.38
2022-11-24T15:10:55.433Z,93660.41
2022-11-24T15:13:25.066Z,93661.06
2022-11-24T15:16:04.012Z,93668.16
2022-11-24T15:18:40.911Z,93673.13
2022-11-24T15:21:08.907Z,93677.53
2022-11-24T15:23:40.651Z,93676.28
2022-11-24T15:26:07.233Z,93679.66
2022-11-24T15:28:36.463Z,93686.19
2022-11-24T15:31:05.255Z,93683.81
2022-11-24T15:33:32.247Z,93680.44
2022-11-24T15:35:59.758Z,93686.25
2022-11-24T15:38:26.772Z,93688.41
2022-11-24T15:40:56.327Z,93686.06
2022-11-24T15:43:38.761Z,93689.72
2022-11-24T15:46:10.369Z,93696.63
2022-11-24T15:48:40.122Z,93694.16
2022-11-24T15:51:11.357Z,93697.28
2022-11-24T15:53:41.292Z,93694.91
2022-11-24T15:56:15.275Z,93703.22
2022-11-24T15:58:44.966Z,93701.56
2022-11-24T16:01:12.000Z,93691.25
2022-11-24T16:03:48.039Z,93702.44
2022-11-24T16:06:24.069Z,93709.31
2022-11-24T16:08:57.197Z,93713.22
2022-11-24T16:11:26.945Z,93712.22
2022-11-24T16:13:54.560Z,93709.66
2022-11-24T16:16:30.273Z,93714.09
2022-11-24T16:18:59.813Z,93709.63
2022-11-24T16:21:26.518Z,93708.22
2022-11-24T16:23:53.825Z,93711.75
2022-11-24T16:26:23.395Z,93711.16
2022-11-24T16:28:50.004Z,93720.84
2022-11-24T16:31:18.047Z,93719.19
2022-11-24T16:33:46.577Z,93721.53
2022-11-24T16:36:15.910Z,93719.19
2022-11-24T16:38:42.572Z,93711.78
2022-11-24T16:41:10.572Z,93737.47
2022-11-24T16:43:40.044Z,93738.19
2022-11-24T16:46:25.050Z,93739.66
2022-11-24T16:48:56.940Z,93733.91
2022-11-24T16:51:30.117Z,93737.56
2022-11-24T16:54:02.885Z,93736.75
2022-11-24T16:56:32.874Z,93742.66
2022-11-24T16:58:59.678Z,93726.06
2022-11-24T17:01:26.441Z,93725.97
2022-11-24T17:03:53.415Z,93729.44
2022-11-24T17:06:22.333Z,93721.09
2022-11-24T17:08:49.037Z,93724.88
2022-11-24T17:11:24.062Z,93732.72
2022-11-24T17:13:51.281Z,93733.38
2022-11-24T17:16:22.519Z,93727.28
2022-11-24T17:18:49.654Z,93727.84
2022-11-24T17:21:19.076Z,93725.13
2022-11-24T17:23:46.302Z,93730.31
2022-11-24T17:26:15.279Z,93730.66
2022-11-24T17:28:42.508Z,93727.63
2022-11-24T17:31:10.004Z,93728.50
2022-11-24T17:33:37.096Z,93724.56
2022-11-24T17:36:05.201Z,93737.16
2022-11-24T17:38:32.060Z,93736.16
2022-11-24T17:40:58.870Z,93735.00
2022-11-24T17:43:26.251Z,93727.63
2022-11-24T17:45:54.825Z,93737.91
2022-11-24T17:48:22.688Z,93730.53
2022-11-24T17:50:58.229Z,93729.78
2022-11-24T17:53:24.860Z,93730.66
2022-11-24T17:55:51.430Z,93732.19
2022-11-24T17:58:18.034Z,93738.69
2022-11-24T18:00:44.657Z,93733.94
2022-11-24T18:03:11.362Z,93736.34
2022-11-24T18:05:38.276Z,93733.13
2022-11-24T18:08:04.993Z,93727.03
2022-11-24T18:10:34.809Z,93728.13
2022-11-24T18:13:02.335Z,93728.44
2022-11-24T18:15:28.966Z,93735.31
2022-11-24T18:17:55.738Z,93742.28
2022-11-24T18:20:22.391Z,93730.88
2022-11-24T18:23:04.995Z,93729.09
2022-11-24T18:25:33.248Z,93742.16
2022-11-24T18:27:59.848Z,93747.50
2022-11-24T18:30:26.455Z,93732.59
2022-11-24T18:32:53.134Z,93751.41
2022-11-24T18:35:19.774Z,93744.91
2022-11-24T18:37:46.361Z,93747.00
2022-11-24T18:40:14.285Z,93753.97
2022-11-24T18:42:40.946Z,93748.50
2022-11-24T18:45:08.133Z,93757.53
2022-11-24T18:47:34.976Z,93752.84
2022-11-24T18:50:02.349Z,93752.84
2022-11-24T18:52:29.031Z,93745.94
2022-11-24T18:54:55.693Z,93748.75
2022-11-24T18:57:22.379Z,93749.09
2022-11-24T18:59:49.039Z,93738.31
2022-11-24T19:02:15.665Z,93740.22
2022-11-24T19:04:42.354Z,93743.44
2022-11-24T19:07:09.050Z,93750.00
2022-11-24T19:09:35.954Z,93752.50
2022-11-24T19:12:03.184Z,93738.69
2022-11-24T19:14:30.758Z,93756.81
2022-11-24T19:16:57.495Z,93757.66
2022-11-24T19:19:24.080Z,93756.69
2022-11-24T19:21:50.689Z,93762.06
2022-11-24T19:24:17.235Z,93762.81
2022-11-24T19:26:43.824Z,93763.53
2022-11-24T19:29:10.428Z,93762.22
2022-11-24T19:31:40.958Z,93765.34
2022-11-24T19:34:08.203Z,93769.13
2022-11-24T19:36:35.418Z,93770.53
2022-11-24T19:39:04.817Z,93771.97
2022-11-24T19:41:32.473Z,93777.47
2022-11-24T19:43:59.666Z,93775.75
2022-11-24T19:46:29.628Z,93782.84
2022-11-24T19:49:00.189Z,93781.16
2022-11-24T19:51:35.885Z,93780.34
2022-11-24T19:54:03.990Z,93779.94
2022-11-24T19:56:34.764Z,93782.09
2022-11-24T19:59:04.167Z,93778.88
2022-11-24T20:01:37.354Z,93772.56
2022-11-24T20:04:06.657Z,93776.19
2022-11-24T20:06:39.306Z,93782.47
2022-11-24T20:09:08.530Z,93784.69
2022-11-24T20:11:35.666Z,93786.88
2022-11-24T20:14:02.541Z,93784.56
2022-11-24T20:16:31.585Z,93782.41
2022-11-24T20:19:00.820Z,93781.09
2022-11-24T20:21:31.338Z,93784.19
2022-11-24T20:24:03.922Z,93785.13
2022-11-24T20:26:33.729Z,93801.41
2022-11-24T20:29:01.279Z,93795.69
2022-11-24T20:31:31.213Z,93801.97
2022-11-24T20:33:58.881Z,93801.09
2022-11-24T20:36:27.435Z,93796.22
2022-11-24T20:38:54.576Z,93799.59
2022-11-24T20:41:27.525Z,93798.84
2022-11-24T20:43:55.682Z,93799.81
2022-11-24T20:46:24.450Z,93808.06
2022-11-24T20:48:52.056Z,93810.94
2022-11-24T20:51:21.734Z,93816.97
2022-11-24T20:53:53.852Z,93821.13
2022-11-24T20:56:23.099Z,93821.72
2022-11-24T20:58:49.895Z,93830.94
2022-11-24T21:01:20.053Z,93833.44
2022-11-24T21:03:47.995Z,93833.00
2022-11-24T21:06:14.829Z,93835.94
2022-11-24T21:08:42.673Z,93818.75
2022-11-24T21:11:11.515Z,93822.50
2022-11-24T21:13:39.844Z,93829.53
2022-11-24T21:16:18.681Z,93844.25
2022-11-24T21:18:49.353Z,93832.09
2022-11-24T21:21:16.305Z,93831.69
2022-11-24T21:23:45.114Z,93840.28
2022-11-24T21:26:16.564Z,93845.59
2022-11-24T21:28:46.164Z,93833.88
2022-11-24T21:31:18.034Z,93847.84
2022-11-24T21:33:46.859Z,93846.28
2022-11-24T21:36:19.761Z,93841.41
2022-11-24T21:38:57.460Z,93833.03
2022-11-24T21:41:26.390Z,93842.72
2022-11-24T21:43:55.983Z,93829.06
2022-11-24T21:46:22.945Z,93837.50
2022-11-24T21:48:49.764Z,93840.84
2022-11-24T21:51:18.762Z,93834.81
2022-11-24T21:53:46.339Z,93837.88
2022-11-24T21:56:15.373Z,93839.53
2022-11-24T21:58:53.617Z,93832.22
2022-11-24T22:01:22.459Z,93832.94
2022-11-24T22:03:49.584Z,93836.97
2022-11-24T22:06:19.145Z,93845.25
2022-11-24T22:08:47.048Z,93852.59
2022-11-24T22:11:18.601Z,93843.94
2022-11-24T22:13:46.070Z,93845.50
2022-11-24T22:16:15.874Z,93846.63
2022-11-24T22:18:44.472Z,93851.38
2022-11-24T22:21:13.761Z,93849.66
2022-11-24T22:23:40.506Z,93842.84
2022-11-24T22:26:15.969Z,93845.75
2022-11-24T22:28:44.059Z,93850.00
2022-11-24T22:31:14.538Z,93860.00
2022-11-24T22:33:41.442Z,93874.97
2022-11-24T22:36:08.573Z,93873.50
2022-11-24T22:38:35.334Z,93876.41
2022-11-24T22:41:15.996Z,93869.09
2022-11-24T22:43:43.574Z,93876.97
2022-11-24T22:46:13.288Z,93881.53
2022-11-24T22:48:40.884Z,93875.41
2022-11-24T22:51:10.782Z,93881.75
2022-11-24T22:53:38.094Z,93875.72
2022-11-24T22:56:07.488Z,93874.41
2022-11-24T22:58:34.230Z,93882.38
2022-11-24T23:01:18.795Z,93880.50
2022-11-24T23:03:46.050Z,93894.78
2022-11-24T23:06:23.762Z,93877.53
2022-11-24T23:08:51.402Z,93880.06
2022-11-24T23:11:29.123Z,93888.06
2022-11-24T23:14:00.567Z,93880.06
2022-11-24T23:16:27.767Z,93888.91
2022-11-24T23:18:54.855Z,93889.94
2022-11-24T23:21:23.266Z,93897.00
2022-11-24T23:23:50.741Z,93892.44
2022-11-24T23:26:23.183Z,93904.19
2022-11-24T23:28:50.265Z,93903.06
2022-11-24T23:31:21.500Z,93909.25
2022-11-24T23:33:48.337Z,93903.44
2022-11-24T23:36:19.416Z,93907.19
2022-11-24T23:38:47.233Z,93910.53
2022-11-24T23:41:19.392Z,93900.13
2022-11-24T23:43:46.277Z,93901.66
2022-11-24T23:46:21.364Z,93906.00
2022-11-24T23:48:49.203Z,93915.47
2022-11-24T23:51:21.127Z,93905.56
2022-11-24T23:53:48.640Z,93900.56
2022-11-24T23:56:18.155Z,93908.13
2022-11-24T23:58:45.378Z,93911.16
